Time;durP1;ratioP1;P1;durP2;ratioP2;P2;SDS_P1;SDS_P2;PMS_P1;PMS_P2;Temp;Humidity;BMP_temperature;BMP_pressure;BME280_temperature;BME280_humidity;BME280_pressure;Samples;Min_cycle;Max_cycle;Signal;HPM_P1;HPM_P2
2023/02/18 00:01:20;;;;;;;3.55;2.45;;;;;;;;;;5070063;28;20485;-59
2023/02/18 00:03:46;;;;;;;3.88;2.38;;;;;;;;;;5072632;28;20073;-58
2023/02/18 00:06:14;;;;;;;3.20;2.40;;;;;;;;;;5072486;28;20051;-59
2023/02/18 00:08:41;;;;;;;3.15;2.10;;;;;;;;;;5068940;28;20090;-57
2023/02/18 00:11:07;;;;;;;3.45;2.22;;;;;;;;;;5070736;28;20036;-58
2023/02/18 00:13:33;;;;;;;2.40;2.00;;;;;;;;;;5067008;28;20032;-58
2023/02/18 00:16:03;;;;;;;3.72;2.30;;;;;;;;;;5069001;28;20020;-59
2023/02/18 00:18:29;;;;;;;3.35;2.10;;;;;;;;;;5066316;28;20031;-59
2023/02/18 00:20:54;;;;;;;3.35;2.13;;;;;;;;;;5068391;28;20397;-59
2023/02/18 00:23:20;;;;;;;3.53;2.42;;;;;;;;;;5071696;28;20031;-59
2023/02/18 00:25:45;;;;;;;4.15;2.50;;;;;;;;;;5071953;28;20443;-59
2023/02/18 00:28:10;;;;;;;2.80;2.22;;;;;;;;;;5068360;28;20024;-58
2023/02/18 00:30:42;;;;;;;4.25;2.38;;;;;;;;;;5071004;28;20227;-58
2023/02/18 00:33:08;;;;;;;5.55;2.47;;;;;;;;;;5071025;28;20029;-57
2023/02/18 00:35:33;;;;;;;3.35;2.17;;;;;;;;;;5071132;28;20025;-58
2023/02/18 00:37:59;;;;;;;4.38;2.38;;;;;;;;;;5069329;28;20033;-58
2023/02/18 00:40:24;;;;;;;4.00;2.42;;;;;;;;;;5070542;28;20032;-57
2023/02/18 00:42:50;;;;;;;3.50;2.45;;;;;;;;;;5069890;28;20552;-57
2023/02/18 00:45:15;;;;;;;3.30;2.20;;;;;;;;;;5074276;28;20036;-58
2023/02/18 00:47:41;;;;;;;3.53;2.10;;;;;;;;;;5069035;28;20051;-57
2023/02/18 00:50:07;;;;;;;3.60;2.35;;;;;;;;;;5068984;28;20477;-57
2023/02/18 00:52:33;;;;;;;3.15;2.35;;;;;;;;;;5071857;28;20407;-57
2023/02/18 00:54:58;;;;;;;6.50;2.33;;;;;;;;;;5071374;28;20016;-57
2023/02/18 00:57:23;;;;;;;4.03;2.40;;;;;;;;;;5068916;28;20111;-57
2023/02/18 00:59:49;;;;;;;2.78;2.08;;;;;;;;;;5070461;28;20455;-60
2023/02/18 01:02:14;;;;;;;3.35;2.38;;;;;;;;;;5071356;28;20491;-58
2023/02/18 01:04:40;;;;;;;3.75;2.00;;;;;;;;;;5070019;28;20518;-59
2023/02/18 01:07:05;;;;;;;3.97;2.42;;;;;;;;;;5064174;28;20073;-58
2023/02/18 01:09:31;;;;;;;4.47;2.35;;;;;;;;;;5064809;28;20021;-59
2023/02/18 01:11:56;;;;;;;3.00;2.10;;;;;;;;;;5065454;28;20141;-58
2023/02/18 01:14:21;;;;;;;2.97;2.20;;;;;;;;;;5064308;28;20094;-58
2023/02/18 01:16:47;;;;;;;4.15;2.40;;;;;;;;;;5065580;28;20174;-58
2023/02/18 01:19:12;;;;;;;4.25;2.63;;;;;;;;;;5069833;28;20036;-57
2023/02/18 01:21:38;;;;;;;4.25;2.47;;;;;;;;;;5070071;28;20410;-58
2023/02/18 01:24:03;;;;;;;3.97;2.63;;;;;;;;;;5069079;28;20055;-58
2023/02/18 01:26:30;;;;;;;3.53;2.17;;;;;;;;;;5069269;28;20024;-57
2023/02/18 01:28:55;;;;;;;4.35;2.45;;;;;;;;;;5069905;28;20039;-58
2023/02/18 01:31:21;;;;;;;3.85;2.30;;;;;;;;;;5070801;28;20401;-58
2023/02/18 01:33:46;;;;;;;3.13;2.10;;;;;;;;;;5064827;28;20033;-58
2023/02/18 01:36:12;;;;;;;4.43;2.30;;;;;;;;;;5069829;28;20500;-58
2023/02/18 01:38:38;;;;;;;3.03;2.20;;;;;;;;;;5068083;28;20054;-59
2023/02/18 01:41:03;;;;;;;3.10;2.00;;;;;;;;;;5069938;28;20033;-59
2023/02/18 01:43:29;;;;;;;2.92;2.33;;;;;;;;;;5067544;28;20107;-58
2023/02/18 01:46:11;;;;;;;4.90;2.00;;;;;;;;;;5067421;28;20683;-59
2023/02/18 01:49:12;;;;;;;4.80;2.75;;;;;;;;;;5066180;28;20037;-58
2023/02/18 01:51:45;;;;;;;3.28;2.03;;;;;;;;;;5064992;28;20044;-58
2023/02/18 01:54:38;;;;;;;4.00;2.42;;;;;;;;;;5069199;28;20035;-58
2023/02/18 01:57:09;;;;;;;3.30;1.92;;;;;;;;;;5061323;28;20036;-57
2023/02/18 01:59:45;;;;;;;3.42;2.28;;;;;;;;;;5065216;28;20042;-58
2023/02/18 02:02:14;;;;;;;3.30;2.30;;;;;;;;;;5065306;28;20028;-59
2023/02/18 02:04:40;;;;;;;3.13;2.20;;;;;;;;;;5069305;28;20029;-59
2023/02/18 02:07:06;;;;;;;3.75;2.17;;;;;;;;;;5067828;28;20047;-60
2023/02/18 02:09:33;;;;;;;3.35;2.15;;;;;;;;;;5068154;28;20108;-59
2023/02/18 02:12:32;;;;;;;3.22;2.00;;;;;;;;;;5068757;28;20032;-59
2023/02/18 02:15:03;;;;;;;3.22;2.15;;;;;;;;;;5065628;28;20515;-58
2023/02/18 02:18:22;;;;;;;3.15;2.00;;;;;;;;;;5062872;28;20440;-57
2023/02/18 02:21:16;;;;;;;3.47;1.90;;;;;;;;;;5000608;28;20080;-59
2023/02/18 02:24:00;;;;;;;2.88;1.90;;;;;;;;;;5044783;28;20794;-57
2023/02/18 02:26:55;;;;;;;4.45;1.90;;;;;;;;;;5066322;28;20028;-57
2023/02/18 02:29:48;;;;;;;3.22;1.98;;;;;;;;;;5068540;28;20440;-57
2023/02/18 02:32:41;;;;;;;2.78;2.03;;;;;;;;;;5066718;28;20414;-57
2023/02/18 02:35:12;;;;;;;4.30;1.80;;;;;;;;;;5065419;28;20031;-58
2023/02/18 02:37:49;;;;;;;1.88;1.58;;;;;;;;;;5067698;28;20024;-57
2023/02/18 02:40:30;;;;;;;2.15;1.60;;;;;;;;;;5067891;28;20103;-59
2023/02/18 02:43:07;;;;;;;2.30;1.65;;;;;;;;;;5068173;28;20020;-59
2023/02/18 02:45:53;;;;;;;3.75;1.88;;;;;;;;;;5066628;28;20028;-60
2023/02/18 02:48:37;;;;;;;1.85;1.42;;;;;;;;;;5065963;28;20036;-58
2023/02/18 02:51:08;;;;;;;1.92;1.15;;;;;;;;;;5064724;28;20559;-59
2023/02/18 02:53:36;;;;;;;2.55;1.90;;;;;;;;;;5069172;28;20028;-59
2023/02/18 02:56:01;;;;;;;1.77;1.30;;;;;;;;;;5068587;28;20078;-59
2023/02/18 02:58:26;;;;;;;2.53;1.50;;;;;;;;;;5066940;28;20024;-59
2023/02/18 03:01:16;;;;;;;2.00;1.33;;;;;;;;;;5065855;28;20039;-59
2023/02/18 03:04:00;;;;;;;2.70;1.30;;;;;;;;;;5067615;28;20063;-59
2023/02/18 03:06:47;;;;;;;2.00;1.17;;;;;;;;;;5067712;28;20047;-59
2023/02/18 03:09:25;;;;;;;2.53;1.50;;;;;;;;;;5065411;28;20499;-59
2023/02/18 03:12:26;;;;;;;2.55;1.35;;;;;;;;;;5066093;28;20028;-59
2023/02/18 03:15:46;;;;;;;1.60;1.20;;;;;;;;;;5051877;28;20044;-59
2023/02/18 03:18:17;;;;;;;1.75;1.42;;;;;;;;;;5011389;28;20021;-59
2023/02/18 03:20:53;;;;;;;1.77;1.27;;;;;;;;;;5072111;28;20055;-59
2023/02/18 03:23:25;;;;;;;2.25;1.45;;;;;;;;;;5071227;28;20490;-58
2023/02/18 03:25:52;;;;;;;2.28;1.35;;;;;;;;;;5071958;28;20032;-58
2023/02/18 03:28:20;;;;;;;1.45;1.23;;;;;;;;;;5071235;28;20055;-59
2023/02/18 03:30:51;;;;;;;2.92;1.55;;;;;;;;;;5072802;28;20077;-58
2023/02/18 03:33:24;;;;;;;2.33;1.27;;;;;;;;;;5072172;28;20111;-59
2023/02/18 03:35:52;;;;;;;2.25;1.60;;;;;;;;;;5071781;28;20055;-59
2023/02/18 03:38:30;;;;;;;1.58;1.30;;;;;;;;;;5069832;28;20048;-59
2023/02/18 03:40:56;;;;;;;2.88;1.80;;;;;;;;;;5072669;28;20035;-59
2023/02/18 03:43:22;;;;;;;3.25;1.70;;;;;;;;;;5072124;28;20107;-59
2023/02/18 03:45:48;;;;;;;2.13;1.60;;;;;;;;;;5071279;28;20032;-59
2023/02/18 03:48:13;;;;;;;2.80;1.65;;;;;;;;;;5071676;28;20390;-59
2023/02/18 03:50:38;;;;;;;2.55;1.63;;;;;;;;;;5069464;28;20059;-59
2023/02/18 03:53:04;;;;;;;2.85;1.70;;;;;;;;;;5072870;28;20131;-58
2023/02/18 03:55:29;;;;;;;5.40;1.77;;;;;;;;;;5069340;28;20074;-59
2023/02/18 03:57:54;;;;;;;2.25;1.73;;;;;;;;;;5068258;28;20387;-59
2023/02/18 04:00:20;;;;;;;1.65;1.40;;;;;;;;;;5066258;28;20031;-59
2023/02/18 04:02:46;;;;;;;2.42;1.80;;;;;;;;;;5067125;28;20439;-59
2023/02/18 04:05:11;;;;;;;2.70;1.45;;;;;;;;;;5067389;28;20025;-60
2023/02/18 04:07:37;;;;;;;1.73;1.40;;;;;;;;;;5066445;28;20432;-59
2023/02/18 04:10:03;;;;;;;3.05;1.65;;;;;;;;;;5066491;28;20104;-58
2023/02/18 04:12:29;;;;;;;2.75;1.80;;;;;;;;;;5064302;28;20391;-58
2023/02/18 04:14:54;;;;;;;1.70;1.55;;;;;;;;;;5071134;28;20027;-59
2023/02/18 04:17:20;;;;;;;2.85;1.95;;;;;;;;;;5070143;28;20021;-59
2023/02/18 04:19:45;;;;;;;3.00;1.65;;;;;;;;;;5070906;28;20040;-59
2023/02/18 04:22:10;;;;;;;3.25;1.83;;;;;;;;;;5070891;28;20024;-58
2023/02/18 04:24:36;;;;;;;2.25;2.00;;;;;;;;;;5069100;28;20033;-56
2023/02/18 04:27:01;;;;;;;2.95;1.90;;;;;;;;;;5069492;28;20028;-57
2023/02/18 04:29:27;;;;;;;4.72;1.90;;;;;;;;;;5071330;28;20543;-57
2023/02/18 04:31:52;;;;;;;2.65;1.85;;;;;;;;;;5070559;28;20032;-56
2023/02/18 04:34:17;;;;;;;2.00;1.50;;;;;;;;;;5071236;28;20016;-57
2023/02/18 04:36:43;;;;;;;1.90;1.70;;;;;;;;;;5067822;28;20050;-57
2023/02/18 04:39:08;;;;;;;2.88;1.90;;;;;;;;;;5075133;28;20050;-58
2023/02/18 04:41:34;;;;;;;3.15;1.63;;;;;;;;;;5071324;28;20645;-57
2023/02/18 04:43:59;;;;;;;2.65;1.48;;;;;;;;;;5069615;28;20028;-58
2023/02/18 04:46:24;;;;;;;1.98;1.67;;;;;;;;;;5070166;28;20048;-57
2023/02/18 04:48:50;;;;;;;2.25;1.63;;;;;;;;;;5068630;28;20043;-58
2023/02/18 04:51:15;;;;;;;2.97;1.60;;;;;;;;;;5066492;28;20036;-58
2023/02/18 04:53:40;;;;;;;4.50;1.80;;;;;;;;;;5068035;28;20489;-58
2023/02/18 04:56:06;;;;;;;2.60;1.67;;;;;;;;;;5071337;28;20021;-58
2023/02/18 04:58:31;;;;;;;3.30;1.67;;;;;;;;;;5066262;28;20496;-57
2023/02/18 05:00:59;;;;;;;2.05;1.55;;;;;;;;;;5066527;28;20509;-58
2023/02/18 05:03:24;;;;;;;2.88;1.77;;;;;;;;;;5070964;28;20487;-58
2023/02/18 05:05:50;;;;;;;2.03;1.48;;;;;;;;;;5072692;28;20110;-57
2023/02/18 05:08:15;;;;;;;2.92;1.60;;;;;;;;;;5069967;28;20048;-58
2023/02/18 05:10:41;;;;;;;2.65;1.80;;;;;;;;;;5070416;28;20432;-57
2023/02/18 05:13:06;;;;;;;3.15;1.63;;;;;;;;;;5070448;28;20031;-58
2023/02/18 05:15:32;;;;;;;2.65;1.50;;;;;;;;;;5070878;28;20506;-58
2023/02/18 05:17:57;;;;;;;3.33;1.55;;;;;;;;;;5067881;28;20029;-58
2023/02/18 05:20:23;;;;;;;2.22;1.40;;;;;;;;;;5070165;28;20021;-59
2023/02/18 05:22:48;;;;;;;3.35;1.50;;;;;;;;;;5066718;28;20393;-59
2023/02/18 05:25:14;;;;;;;3.15;1.50;;;;;;;;;;5070444;28;20024;-57
2023/02/18 05:27:39;;;;;;;2.35;1.70;;;;;;;;;;5068977;28;20084;-57
2023/02/18 05:30:05;;;;;;;2.80;1.52;;;;;;;;;;5069396;28;20028;-57
2023/02/18 05:32:31;;;;;;;1.77;1.48;;;;;;;;;;5070390;28;20032;-57
2023/02/18 05:34:57;;;;;;;2.97;1.48;;;;;;;;;;5069990;28;20032;-58
2023/02/18 05:37:22;;;;;;;2.13;1.40;;;;;;;;;;5069268;28;20481;-58
2023/02/18 05:39:47;;;;;;;2.00;1.55;;;;;;;;;;5067918;28;20086;-58
2023/02/18 05:42:13;;;;;;;3.58;1.50;;;;;;;;;;5069883;28;20020;-57
2023/02/18 05:44:38;;;;;;;2.08;1.50;;;;;;;;;;5067766;28;20039;-57
2023/02/18 05:47:10;;;;;;;1.92;1.30;;;;;;;;;;5067268;28;20024;-57
2023/02/18 05:49:36;;;;;;;2.10;1.40;;;;;;;;;;5068784;28;20040;-57
2023/02/18 05:52:02;;;;;;;2.47;1.45;;;;;;;;;;5070505;28;20103;-58
2023/02/18 05:54:28;;;;;;;2.28;1.50;;;;;;;;;;5070083;28;20486;-57
2023/02/18 05:56:54;;;;;;;1.85;1.30;;;;;;;;;;5068900;28;20043;-59
2023/02/18 05:59:19;;;;;;;3.58;1.85;;;;;;;;;;5070210;28;20470;-59
2023/02/18 06:01:46;;;;;;;2.55;1.50;;;;;;;;;;5066206;28;20035;-58
2023/02/18 06:04:11;;;;;;;3.25;1.77;;;;;;;;;;5062211;28;20544;-58
2023/02/18 06:06:37;;;;;;;2.05;1.42;;;;;;;;;;5067956;28;20044;-58
2023/02/18 06:09:03;;;;;;;4.35;1.75;;;;;;;;;;5066343;28;20101;-58
2023/02/18 06:11:29;;;;;;;2.38;1.50;;;;;;;;;;5069560;28;20021;-57
2023/02/18 06:13:54;;;;;;;1.70;1.30;;;;;;;;;;5070022;28;20902;-58
2023/02/18 06:16:19;;;;;;;2.88;1.40;;;;;;;;;;5070168;28;20035;-59
2023/02/18 06:18:45;;;;;;;1.90;1.42;;;;;;;;;;5068164;28;20029;-58
2023/02/18 06:21:10;;;;;;;3.03;1.33;;;;;;;;;;5072073;28;20026;-58
2023/02/18 06:23:35;;;;;;;2.28;1.40;;;;;;;;;;5069522;28;20036;-57
2023/02/18 06:26:01;;;;;;;3.33;1.88;;;;;;;;;;5069458;28;20115;-58
2023/02/18 06:28:26;;;;;;;2.55;1.73;;;;;;;;;;5060011;28;20402;-56
2023/02/18 06:30:52;;;;;;;2.20;1.40;;;;;;;;;;5079837;28;20043;-58
2023/02/18 06:33:17;;;;;;;3.35;1.85;;;;;;;;;;5072233;28;20024;-57
2023/02/18 06:35:55;;;;;;;1.75;1.42;;;;;;;;;;5071584;28;20028;-57
2023/02/18 06:38:21;;;;;;;2.47;1.67;;;;;;;;;;5068755;28;20028;-57
2023/02/18 06:40:47;;;;;;;2.35;1.70;;;;;;;;;;5070276;28;20029;-57
2023/02/18 06:43:12;;;;;;;3.17;1.75;;;;;;;;;;5069981;28;20429;-57
2023/02/18 06:45:39;;;;;;;4.38;2.10;;;;;;;;;;5068595;28;20059;-57
2023/02/18 06:48:04;;;;;;;5.03;2.13;;;;;;;;;;5074121;28;20389;-57
2023/02/18 06:50:30;;;;;;;3.70;2.10;;;;;;;;;;5068769;28;20116;-57
2023/02/18 06:52:56;;;;;;;3.30;2.20;;;;;;;;;;5066524;28;20370;-57
2023/02/18 06:55:21;;;;;;;5.85;2.50;;;;;;;;;;5069177;28;20025;-57
2023/02/18 06:57:47;;;;;;;5.45;2.70;;;;;;;;;;5069258;28;20036;-57
2023/02/18 07:00:12;;;;;;;3.83;2.17;;;;;;;;;;5069069;28;20028;-57
2023/02/18 07:02:38;;;;;;;4.35;2.22;;;;;;;;;;5071118;28;20028;-57
2023/02/18 07:05:04;;;;;;;3.88;2.22;;;;;;;;;;5069245;28;20064;-57
2023/02/18 07:07:30;;;;;;;3.33;2.20;;;;;;;;;;5067446;28;20046;-57
2023/02/18 07:09:55;;;;;;;5.50;2.45;;;;;;;;;;5069374;28;20115;-57
2023/02/18 07:12:21;;;;;;;2.53;1.60;;;;;;;;;;5074436;28;20557;-57
2023/02/18 07:14:46;;;;;;;2.65;1.65;;;;;;;;;;5071242;28;20028;-59
2023/02/18 07:17:12;;;;;;;2.47;1.77;;;;;;;;;;5071669;28;20039;-56
2023/02/18 07:19:38;;;;;;;3.63;2.53;;;;;;;;;;5073478;28;20020;-57
2023/02/18 07:22:03;;;;;;;4.43;2.20;;;;;;;;;;5068431;28;20029;-57
2023/02/18 07:24:29;;;;;;;3.58;2.03;;;;;;;;;;5068347;28;20029;-57
2023/02/18 07:26:54;;;;;;;4.53;2.25;;;;;;;;;;5068123;28;20023;-57
2023/02/18 07:29:20;;;;;;;6.03;3.00;;;;;;;;;;5069498;28;20083;-57
2023/02/18 07:31:45;;;;;;;4.57;2.47;;;;;;;;;;5068557;28;20035;-57
2023/02/18 07:34:11;;;;;;;3.70;2.13;;;;;;;;;;5069843;28;20020;-57
2023/02/18 07:36:37;;;;;;;3.47;2.08;;;;;;;;;;5071409;28;20032;-57
2023/02/18 07:39:03;;;;;;;3.55;2.15;;;;;;;;;;5072153;28;20028;-57
2023/02/18 07:41:28;;;;;;;9.30;2.70;;;;;;;;;;5070416;28;20039;-57
2023/02/18 07:43:54;;;;;;;4.45;3.22;;;;;;;;;;5072607;28;20028;-57
2023/02/18 07:46:19;;;;;;;4.72;2.63;;;;;;;;;;5068566;28;20127;-58
2023/02/18 07:48:45;;;;;;;7.38;3.35;;;;;;;;;;5068202;28;20028;-59
2023/02/18 07:51:12;;;;;;;3.83;2.33;;;;;;;;;;5067815;28;20031;-58
2023/02/18 07:53:37;;;;;;;4.68;2.30;;;;;;;;;;5067838;28;20063;-58
2023/02/18 07:56:04;;;;;;;4.13;2.45;;;;;;;;;;5070040;28;20427;-58
2023/02/18 07:58:32;;;;;;;4.40;2.35;;;;;;;;;;5068486;28;20448;-57
2023/02/18 08:00:58;;;;;;;2.72;2.00;;;;;;;;;;5070122;28;20036;-57
2023/02/18 08:03:29;;;;;;;5.05;2.30;;;;;;;;;;5072449;28;20025;-60
2023/02/18 08:05:55;;;;;;;5.88;2.10;;;;;;;;;;5070455;28;20108;-59
2023/02/18 08:08:24;;;;;;;4.85;2.42;;;;;;;;;;5067936;28;20046;-61
2023/02/18 08:10:51;;;;;;;3.92;1.90;;;;;;;;;;5072178;28;20037;-59
2023/02/18 08:13:17;;;;;;;9.43;2.50;;;;;;;;;;5072503;28;20044;-57
2023/02/18 08:15:42;;;;;;;3.58;2.50;;;;;;;;;;5072972;28;20016;-57
2023/02/18 08:18:15;;;;;;;9.27;3.10;;;;;;;;;;5071518;28;20058;-57
2023/02/18 08:20:40;;;;;;;3.05;2.13;;;;;;;;;;5071940;28;20032;-57
2023/02/18 08:23:05;;;;;;;17.45;2.33;;;;;;;;;;5071094;28;20025;-58
2023/02/18 08:25:31;;;;;;;3.75;2.35;;;;;;;;;;5070144;28;20021;-58
2023/02/18 08:27:57;;;;;;;4.53;2.22;;;;;;;;;;5072125;28;20024;-59
2023/02/18 08:30:22;;;;;;;3.25;2.15;;;;;;;;;;5071599;28;20021;-58
2023/02/18 08:32:48;;;;;;;6.20;3.03;;;;;;;;;;5070873;28;20366;-58
2023/02/18 08:35:13;;;;;;;3.05;2.30;;;;;;;;;;5072555;28;20078;-59
2023/02/18 08:37:39;;;;;;;3.58;2.08;;;;;;;;;;5071590;28;20470;-59
2023/02/18 08:40:05;;;;;;;2.75;1.70;;;;;;;;;;5073600;28;20024;-58
2023/02/18 08:42:30;;;;;;;2.90;2.08;;;;;;;;;;5073148;28;20505;-57
2023/02/18 08:44:56;;;;;;;4.82;2.15;;;;;;;;;;5076201;28;20054;-57
2023/02/18 08:47:21;;;;;;;3.08;2.05;;;;;;;;;;5069672;28;20060;-58
2023/02/18 08:49:47;;;;;;;3.97;2.45;;;;;;;;;;5077224;28;20481;-57
2023/02/18 08:52:12;;;;;;;3.03;1.88;;;;;;;;;;5071727;28;20039;-57
2023/02/18 08:54:38;;;;;;;2.90;2.20;;;;;;;;;;5071728;28;20020;-58
2023/02/18 08:57:03;;;;;;;2.80;2.22;;;;;;;;;;5069894;28;20020;-59
2023/02/18 08:59:29;;;;;;;3.33;1.67;;;;;;;;;;5070307;28;20024;-57
2023/02/18 09:01:54;;;;;;;4.03;2.20;;;;;;;;;;5071835;28;20482;-58
2023/02/18 09:04:20;;;;;;;3.35;1.90;;;;;;;;;;5071022;28;20436;-59
2023/02/18 09:06:46;;;;;;;4.80;2.05;;;;;;;;;;5072857;28;20086;-58
2023/02/18 09:09:12;;;;;;;2.42;1.83;;;;;;;;;;5072271;28;20031;-58
2023/02/18 09:11:37;;;;;;;2.80;1.98;;;;;;;;;;5070018;28;20028;-58
2023/02/18 09:14:03;;;;;;;6.35;3.05;;;;;;;;;;5071965;28;20370;-58
2023/02/18 09:16:28;;;;;;;2.88;1.90;;;;;;;;;;5071698;28;20032;-58
2023/02/18 09:18:55;;;;;;;3.95;1.40;;;;;;;;;;5061095;28;20530;-58
2023/02/18 09:21:22;;;;;;;4.63;1.83;;;;;;;;;;5071135;28;20702;-58
2023/02/18 09:23:48;;;;;;;3.22;1.95;;;;;;;;;;5070222;28;20390;-57
2023/02/18 09:26:16;;;;;;;5.07;2.08;;;;;;;;;;5067123;28;20039;-58
2023/02/18 09:28:42;;;;;;;3.00;1.90;;;;;;;;;;5070443;28;20029;-58
2023/02/18 09:31:11;;;;;;;5.45;2.00;;;;;;;;;;5070161;28;20024;-59
2023/02/18 09:33:43;;;;;;;5.60;2.03;;;;;;;;;;5068170;28;20035;-58
2023/02/18 09:36:09;;;;;;;3.15;2.15;;;;;;;;;;5070828;28;20324;-58
2023/02/18 09:38:34;;;;;;;12.00;2.35;;;;;;;;;;5070698;28;20029;-58
2023/02/18 09:41:04;;;;;;;3.42;1.95;;;;;;;;;;5070435;28;20036;-59
2023/02/18 09:43:42;;;;;;;2.53;1.70;;;;;;;;;;5065918;28;20482;-59
2023/02/18 09:46:22;;;;;;;5.18;2.03;;;;;;;;;;5070706;28;20600;-59
2023/02/18 09:48:47;;;;;;;;;;;;;;;;;;5067035;28;20107;-59
2023/02/18 09:51:17;;;;;;;6.15;1.85;;;;;;;;;;5069750;28;20003;-57
2023/02/18 09:53:44;;;;;;;3.83;2.00;;;;;;;;;;5068506;28;20497;-58
2023/02/18 09:56:14;;;;;;;4.43;1.50;;;;;;;;;;5066599;28;20032;-61
2023/02/18 09:58:41;;;;;;;2.85;1.70;;;;;;;;;;5067735;28;20029;-58
2023/02/18 10:01:31;;;;;;;2.55;1.60;;;;;;;;;;5070928;28;20028;-57
2023/02/18 10:04:06;;;;;;;2.30;1.80;;;;;;;;;;5072179;28;20028;-58
2023/02/18 10:06:33;;;;;;;3.15;1.77;;;;;;;;;;5064912;28;20404;-58
2023/02/18 10:09:03;;;;;;;2.53;1.60;;;;;;;;;;5068593;28;20060;-59
2023/02/18 10:11:40;;;;;;;6.10;2.00;;;;;;;;;;5063966;28;20099;-58
2023/02/18 10:14:12;;;;;;;4.38;1.98;;;;;;;;;;5064420;28;20050;-58
2023/02/18 10:16:37;;;;;;;4.25;2.60;;;;;;;;;;5068298;28;20036;-58
2023/02/18 10:19:42;;;;;;;4.88;1.92;;;;;;;;;;5069307;28;20029;-58
2023/02/18 10:22:11;;;;;;;5.32;2.72;;;;;;;;;;5058136;28;20557;-58
2023/02/18 10:24:40;;;;;;;3.38;2.00;;;;;;;;;;5068100;28;20047;-59
2023/02/18 10:27:07;;;;;;;4.77;1.90;;;;;;;;;;5064708;28;20031;-59
2023/02/18 10:29:34;;;;;;;3.10;2.03;;;;;;;;;;5070158;28;20259;-58
2023/02/18 10:32:09;;;;;;;4.10;2.00;;;;;;;;;;5070223;28;20545;-58
2023/02/18 10:34:43;;;;;;;2.78;2.08;;;;;;;;;;5067569;28;20376;-58
2023/02/18 10:37:14;;;;;;;3.47;2.25;;;;;;;;;;5069271;28;20477;-58
2023/02/18 10:39:42;;;;;;;4.80;2.20;;;;;;;;;;5069241;28;20473;-58
2023/02/18 10:42:34;;;;;;;3.00;1.85;;;;;;;;;;5069346;28;20025;-59
2023/02/18 10:45:28;;;;;;;2.53;1.70;;;;;;;;;;5065172;28;20505;-59
2023/02/18 10:48:17;;;;;;;3.10;1.75;;;;;;;;;;5066826;28;20432;-58
2023/02/18 10:50:44;;;;;;;4.20;2.07;;;;;;;;;;5059001;28;20067;-59
2023/02/18 10:53:12;;;;;;;6.75;2.63;;;;;;;;;;5064424;28;20289;-59
2023/02/18 10:55:48;;;;;;;3.08;2.05;;;;;;;;;;5068836;28;20021;-59
2023/02/18 10:58:35;;;;;;;5.25;2.90;;;;;;;;;;5067184;28;20103;-59
2023/02/18 11:01:07;;;;;;;3.78;2.55;;;;;;;;;;5065404;28;20035;-59
2023/02/18 11:03:50;;;;;;;3.75;2.38;;;;;;;;;;5066996;28;20390;-58
2023/02/18 11:06:23;;;;;;;2.42;1.80;;;;;;;;;;5068240;28;20029;-58
2023/02/18 11:08:49;;;;;;;4.47;1.75;;;;;;;;;;5067546;28;20017;-59
2023/02/18 11:11:21;;;;;;;2.88;1.90;;;;;;;;;;5068953;28;20371;-58
2023/02/18 11:13:56;;;;;;;3.47;2.30;;;;;;;;;;5064854;28;20486;-59
2023/02/18 11:16:23;;;;;;;3.03;2.20;;;;;;;;;;5066116;28;20033;-58
2023/02/18 11:18:49;;;;;;;3.88;2.40;;;;;;;;;;5068947;28;20570;-58
2023/02/18 11:21:20;;;;;;;3.80;2.15;;;;;;;;;;5064665;28;20036;-59
2023/02/18 11:23:48;;;;;;;2.85;2.20;;;;;;;;;;5064144;28;20063;-59
2023/02/18 11:26:16;;;;;;;4.35;2.20;;;;;;;;;;5066878;28;20032;-59
2023/02/18 11:28:44;;;;;;;4.50;2.25;;;;;;;;;;5067527;28;20056;-61
2023/02/18 11:31:16;;;;;;;4.47;2.70;;;;;;;;;;5065299;28;20024;-61
2023/02/18 11:33:49;;;;;;;5.60;2.40;;;;;;;;;;5065531;28;20161;-59
2023/02/18 11:36:15;;;;;;;2.60;1.83;;;;;;;;;;5069190;28;20013;-60
2023/02/18 11:38:48;;;;;;;3.00;2.15;;;;;;;;;;5071055;28;20040;-60
2023/02/18 11:41:17;;;;;;;5.53;1.95;;;;;;;;;;5069855;28;20649;-60
2023/02/18 11:43:48;;;;;;;2.42;1.92;;;;;;;;;;5069668;28;20028;-58
2023/02/18 11:46:23;;;;;;;4.05;2.20;;;;;;;;;;5070972;28;20032;-60
2023/02/18 11:48:49;;;;;;;3.03;2.10;;;;;;;;;;5070699;28;20029;-59
2023/02/18 11:51:18;;;;;;;5.43;2.38;;;;;;;;;;5068343;28;20118;-59
2023/02/18 11:53:58;;;;;;;6.63;2.58;;;;;;;;;;5068938;28;20039;-59
2023/02/18 11:56:25;;;;;;;6.43;2.38;;;;;;;;;;5065562;28;20556;-60
2023/02/18 11:58:51;;;;;;;4.25;3.00;;;;;;;;;;5070464;28;20043;-60
2023/02/18 12:01:31;;;;;;;4.28;1.95;;;;;;;;;;5072980;28;20508;-61
2023/02/18 12:04:06;;;;;;;3.63;2.28;;;;;;;;;;5070449;28;20028;-58
2023/02/18 12:06:37;;;;;;;3.22;2.33;;;;;;;;;;5071643;28;20130;-58
2023/02/18 12:09:13;;;;;;;4.75;2.45;;;;;;;;;;5070119;28;20024;-58
2023/02/18 12:11:43;;;;;;;8.27;1.88;;;;;;;;;;5071560;28;20026;-57
2023/02/18 12:14:16;;;;;;;3.45;1.95;;;;;;;;;;5072361;28;20494;-57
2023/02/18 12:16:42;;;;;;;2.92;1.88;;;;;;;;;;5067079;28;20147;-59
2023/02/18 12:19:45;;;;;;;3.72;2.20;;;;;;;;;;5071757;28;20028;-58
2023/02/18 12:22:32;;;;;;;3.25;2.25;;;;;;;;;;5069353;28;20032;-58
2023/02/18 12:25:22;;;;;;;4.10;2.25;;;;;;;;;;5064272;28;20025;-58
2023/02/18 12:28:14;;;;;;;3.75;2.55;;;;;;;;;;5063980;28;20556;-58
2023/02/18 12:31:04;;;;;;;3.40;1.80;;;;;;;;;;5069465;28;20070;-57
2023/02/18 12:33:44;;;;;;;3.08;2.10;;;;;;;;;;5069563;28;20504;-58
2023/02/18 12:36:22;;;;;;;3.95;2.58;;;;;;;;;;5067321;28;20020;-57
2023/02/18 12:39:12;;;;;;;3.97;2.30;;;;;;;;;;5069056;28;20025;-58
2023/02/18 12:41:53;;;;;;;2.30;1.92;;;;;;;;;;5070484;28;20103;-57
2023/02/18 12:44:43;;;;;;;5.72;2.40;;;;;;;;;;5071116;28;20047;-58
2023/02/18 12:47:21;;;;;;;5.47;2.35;;;;;;;;;;5063310;28;20084;-59
2023/02/18 12:50:04;;;;;;;5.75;2.78;;;;;;;;;;5065307;28;20094;-58
2023/02/18 12:52:55;;;;;;;3.95;2.25;;;;;;;;;;5065592;28;20056;-58
2023/02/18 12:55:52;;;;;;;4.38;2.50;;;;;;;;;;5067774;28;20031;-58
2023/02/18 12:58:49;;;;;;;12.00;6.53;;;;;;;;;;5049698;28;20039;-58
2023/02/18 13:01:43;;;;;;;6.97;3.60;;;;;;;;;;5062834;28;20367;-57
2023/02/18 13:04:20;;;;;;;6.25;3.58;;;;;;;;;;5065485;28;20481;-57
2023/02/18 13:06:52;;;;;;;4.45;3.00;;;;;;;;;;5068347;28;20086;-58
2023/02/18 13:09:31;;;;;;;7.28;3.83;;;;;;;;;;5070594;28;20059;-57
2023/02/18 13:12:02;;;;;;;8.68;3.88;;;;;;;;;;5070246;28;20028;-57
2023/02/18 13:14:32;;;;;;;7.57;3.90;;;;;;;;;;5069962;28;20024;-58
2023/02/18 13:17:00;;;;;;;5.03;3.22;;;;;;;;;;5066745;28;20035;-57
2023/02/18 13:19:36;;;;;;;3.60;2.47;;;;;;;;;;5062921;28;20029;-57
2023/02/18 13:22:04;;;;;;;3.53;2.40;;;;;;;;;;5069837;28;20039;-58
2023/02/18 13:24:34;;;;;;;4.20;2.60;;;;;;;;;;5069336;28;20477;-58
2023/02/18 13:27:27;;;;;;;3.58;2.60;;;;;;;;;;5068559;28;20028;-57
2023/02/18 13:29:58;;;;;;;4.68;2.20;;;;;;;;;;5047868;28;20053;-58
2023/02/18 13:32:42;;;;;;;3.58;1.95;;;;;;;;;;5067384;28;20481;-57
2023/02/18 13:35:16;;;;;;;3.70;2.00;;;;;;;;;;5074115;28;20029;-57
2023/02/18 13:38:00;;;;;;;3.33;2.35;;;;;;;;;;5067493;28;20103;-58
2023/02/18 13:40:29;;;;;;;4.65;2.10;;;;;;;;;;5066088;28;20553;-58
2023/02/18 13:43:20;;;;;;;3.58;2.28;;;;;;;;;;5072422;28;20346;-58
2023/02/18 13:46:21;;;;;;;4.18;2.67;;;;;;;;;;5068929;28;20103;-57
2023/02/18 13:48:51;;;;;;;2.65;2.25;;;;;;;;;;5064950;28;20035;-57
2023/02/18 13:51:30;;;;;;;;;;;;;;;;;;5069301;28;20089;-58
2023/02/18 13:54:30;;;;;;;3.53;2.55;;;;;;;;;;5068244;28;19913;-58
2023/02/18 13:57:15;;;;;;;5.72;2.85;;;;;;;;;;5057505;28;20077;-59
2023/02/18 13:59:51;;;;;;;8.95;3.25;;;;;;;;;;5064667;28;20139;-58
2023/02/18 14:02:19;;;;;;;7.22;4.05;;;;;;;;;;5064715;28;20029;-58
2023/02/18 14:04:45;;;;;;;15.88;5.50;;;;;;;;;;5070134;28;20493;-58
2023/02/18 14:07:16;;;;;;;6.22;3.60;;;;;;;;;;5067961;28;20049;-58
2023/02/18 14:09:42;;;;;;;8.63;3.95;;;;;;;;;;5067823;28;20024;-58
2023/02/18 14:12:47;;;;;;;5.40;2.95;;;;;;;;;;5068994;28;20028;-58
2023/02/18 14:15:18;;;;;;;6.63;3.72;;;;;;;;;;5069601;28;20059;-57
2023/02/18 14:18:02;;;;;;;5.47;3.10;;;;;;;;;;5068433;28;20044;-57
2023/02/18 14:20:37;;;;;;;5.95;3.17;;;;;;;;;;5068914;28;20141;-58
2023/02/18 14:23:17;;;;;;;6.45;3.10;;;;;;;;;;5068235;28;20032;-58
2023/02/18 14:26:10;;;;;;;4.28;2.92;;;;;;;;;;5066978;28;20039;-57
2023/02/18 14:29:11;;;;;;;3.95;2.90;;;;;;;;;;5066152;28;20203;-58
2023/02/18 14:31:42;;;;;;;10.60;5.32;;;;;;;;;;5034227;28;20541;-58
2023/02/18 14:34:08;;;;;;;9.98;4.90;;;;;;;;;;5063473;28;20504;-58
2023/02/18 14:36:56;;;;;;;4.65;2.80;;;;;;;;;;5065807;28;20024;-58
2023/02/18 14:39:35;;;;;;;5.82;3.00;;;;;;;;;;5038878;28;20140;-58
2023/02/18 14:42:22;;;;;;;10.45;4.70;;;;;;;;;;5067980;28;20044;-57
2023/02/18 14:45:16;;;;;;;13.35;4.60;;;;;;;;;;5064023;28;20108;-58
2023/02/18 14:48:01;;;;;;;7.38;3.95;;;;;;;;;;5068094;28;20040;-58
2023/02/18 14:50:31;;;;;;;5.90;3.95;;;;;;;;;;5067426;28;20103;-58
2023/02/18 14:53:01;;;;;;;5.85;3.20;;;;;;;;;;5064432;28;20035;-58
2023/02/18 14:55:33;;;;;;;4.65;2.75;;;;;;;;;;5068751;28;20035;-58
2023/02/18 14:58:06;;;;;;;5.18;3.00;;;;;;;;;;5067161;28;20024;-59
2023/02/18 15:00:34;;;;;;;3.78;2.50;;;;;;;;;;5066318;28;20031;-58
2023/02/18 15:03:01;;;;;;;25.48;8.40;;;;;;;;;;5068987;28;20033;-58
2023/02/18 15:05:30;;;;;;;12.07;3.78;;;;;;;;;;5068479;28;20025;-58
2023/02/18 15:08:09;;;;;;;;;;;;;;;;;;5061179;28;20163;-58